Time;durP1;ratioP1;P1;durP2;ratioP2;P2;SDS_P1;SDS_P2;PMS_P1;PMS_P2;Temp;Humidity;BMP_temperature;BMP_pressure;BME280_temperature;BME280_humidity;BME280_pressure;Samples;Min_cycle;Max_cycle;Signal;HPM_P1;HPM_P2
2023/09/05 00:00:13;;;;;;;3.30;2.67;;;;;;;14.99;100.00;101957.19;5051161;28;20451;-68
2023/09/05 00:02:44;;;;;;;3.40;2.73;;;;;;;15.00;100.00;101959.69;5052206;28;20036;-68
2023/09/05 00:05:11;;;;;;;5.57;3.80;;;;;;;14.95;100.00;101962.03;5052301;28;20095;-69
2023/09/05 00:07:38;;;;;;;4.87;2.93;;;;;;;14.89;100.00;101951.97;5052618;28;20037;-71
2023/09/05 00:10:11;;;;;;;5.10;3.00;;;;;;;14.96;100.00;101969.09;5052494;28;20033;-68
2023/09/05 00:12:40;;;;;;;3.20;2.83;;;;;;;14.89;100.00;101957.31;5051242;28;20519;-68
2023/09/05 00:15:13;;;;;;;3.93;3.33;;;;;;;14.95;100.00;101963.88;5051033;28;20055;-68
2023/09/05 00:17:40;;;;;;;7.57;2.90;;;;;;;14.86;100.00;101954.97;5052025;28;20379;-68
2023/09/05 00:20:06;;;;;;;5.43;3.57;;;;;;;14.85;100.00;101956.81;5052333;28;20491;-68
2023/09/05 00:22:33;;;;;;;4.33;3.07;;;;;;;14.85;100.00;101961.34;5052233;28;20694;-66
2023/09/05 00:24:58;;;;;;;4.40;2.80;;;;;;;14.78;100.00;101949.59;5052176;28;20044;-67
2023/09/05 00:27:24;;;;;;;4.67;3.50;;;;;;;14.87;100.00;101970.91;5051881;28;20025;-68
2023/09/05 00:29:50;;;;;;;4.37;2.83;;;;;;;14.92;100.00;101978.47;5050715;28;20041;-68
2023/09/05 00:32:18;;;;;;;6.13;3.23;;;;;;;14.97;100.00;101975.28;5052287;28;20036;-68
2023/09/05 00:34:44;;;;;;;6.80;3.13;;;;;;;14.98;100.00;101977.81;5050888;28;20495;-68
2023/09/05 00:37:09;;;;;;;6.20;2.80;;;;;;;14.95;100.00;101971.94;5052121;28;20037;-69
2023/09/05 00:39:39;;;;;;;4.43;3.40;;;;;;;14.91;100.00;101966.06;5050533;28;20088;-68
2023/09/05 00:42:07;;;;;;;5.97;3.47;;;;;;;14.95;100.00;101966.56;5050790;28;20021;-68
2023/09/05 00:44:33;;;;;;;4.90;3.05;;;;;;;15.10;100.00;101979.22;5051818;28;20033;-68
2023/09/05 00:47:00;;;;;;;4.60;3.00;;;;;;;15.20;100.00;101984.44;5052124;28;20112;-69
2023/09/05 00:49:27;;;;;;;4.67;2.97;;;;;;;15.17;100.00;101965.97;5051638;28;20036;-67
2023/09/05 00:52:02;;;;;;;4.10;3.20;;;;;;;15.26;100.00;101972.19;5051829;28;20464;-68
2023/09/05 00:54:29;;;;;;;4.57;3.37;;;;;;;15.07;100.00;101947.34;5050407;28;20498;-66
2023/09/05 00:56:55;;;;;;;4.87;3.13;;;;;;;15.21;100.00;101977.22;5051636;28;20021;-69
2023/09/05 00:59:21;;;;;;;8.13;3.63;;;;;;;15.18;100.00;101979.22;5051693;28;20036;-69
2023/09/05 01:01:47;;;;;;;4.40;3.40;;;;;;;15.15;100.00;101978.72;5051847;28;20460;-68
2023/09/05 01:04:13;;;;;;;4.87;3.27;;;;;;;15.11;100.00;101972.84;5050635;28;20029;-68
2023/09/05 01:07:06;;;;;;;4.67;2.83;;;;;;;15.08;100.00;101970.47;5051779;28;20036;-67
2023/09/05 01:09:55;;;;;;;5.60;3.47;;;;;;;15.03;100.00;101964.75;5050366;28;20357;-68
2023/09/05 01:12:21;;;;;;;6.90;3.87;;;;;;;14.95;100.00;101955.84;5050384;28;20367;-66
2023/09/05 01:14:46;;;;;;;3.83;2.93;;;;;;;14.95;100.00;101964.72;5051587;28;20033;-67
2023/09/05 01:17:12;;;;;;;5.70;3.30;;;;;;;14.84;100.00;101948.94;5051471;28;20033;-69
2023/09/05 01:19:39;;;;;;;7.13;5.97;;;;;;;14.85;100.00;101945.25;5050316;28;20045;-67
2023/09/05 01:22:24;;;;;;;4.27;2.97;;;;;;;14.96;100.00;101955.66;5051394;28;20032;-67
2023/09/05 01:24:50;;;;;;;4.10;3.50;;;;;;;14.86;100.00;101942.41;5050473;28;20380;-68
2023/09/05 01:27:19;;;;;;;6.00;3.97;;;;;;;14.93;100.00;101947.13;5054661;28;20037;-68
2023/09/05 01:29:47;;;;;;;6.80;3.10;;;;;;;14.92;100.00;101957.00;5051852;28;20039;-70
2023/09/05 01:32:14;;;;;;;4.43;4.03;;;;;;;14.91;100.00;101943.75;5050006;28;20036;-68
2023/09/05 01:34:40;;;;;;;12.23;4.00;;;;;;;14.83;100.00;101926.63;5049905;28;20029;-68
2023/09/05 01:37:06;;;;;;;3.40;3.10;;;;;;;14.91;100.00;101941.91;5050077;28;20064;-67
2023/09/05 01:39:32;;;;;;;4.00;3.00;;;;;;;14.84;100.00;101928.31;5051765;28;20440;-67
2023/09/05 01:41:58;;;;;;;6.77;3.70;;;;;;;14.77;100.00;101921.94;5051250;28;20469;-67
2023/09/05 01:44:24;;;;;;;5.03;3.43;;;;;;;14.86;100.00;101925.47;5051403;28;20025;-69
2023/09/05 01:46:50;;;;;;;6.20;3.30;;;;;;;14.78;100.00;101920.91;5051304;28;20021;-68
2023/09/05 01:49:15;;;;;;;5.17;3.53;;;;;;;14.83;100.00;101925.78;5051028;28;20456;-67
2023/09/05 01:51:41;;;;;;;9.20;3.30;;;;;;;14.64;100.00;101893.88;5051343;28;20071;-67
2023/09/05 01:54:06;;;;;;;3.93;3.33;;;;;;;14.61;100.00;101875.44;5051320;28;20021;-67
2023/09/05 01:56:32;;;;;;;5.67;3.67;;;;;;;14.81;100.00;101900.97;5051106;28;20488;-67
2023/09/05 01:58:57;;;;;;;6.60;4.57;;;;;;;14.81;100.00;101900.97;5051216;28;20115;-67
2023/09/05 02:01:23;;;;;;;6.07;4.03;;;;;;;14.88;100.00;101902.00;5051361;28;20021;-67
2023/09/05 02:03:48;;;;;;;6.63;4.33;;;;;;;14.86;100.00;101891.44;5054686;28;20534;-68
2023/09/05 02:06:14;;;;;;;5.23;4.33;;;;;;;14.98;100.00;101891.13;5054698;28;20033;-68
2023/09/05 02:08:40;;;;;;;6.70;4.37;;;;;;;14.72;100.00;101846.47;5054691;28;20104;-68
2023/09/05 02:11:06;;;;;;;6.57;3.70;;;;;;;14.86;100.00;101867.31;5054725;28;20029;-67
2023/09/05 02:13:31;;;;;;;6.87;3.57;;;;;;;14.99;100.00;101871.34;5054395;28;20033;-67
2023/09/05 02:15:57;;;;;;;5.93;4.50;;;;;;;14.84;100.00;101849.69;5053050;28;20036;-67
2023/09/05 02:18:23;;;;;;;7.23;3.77;;;;;;;15.00;100.00;101867.66;5054344;28;20025;-67
2023/09/05 02:20:48;;;;;;;6.07;3.57;;;;;;;15.03;100.00;101862.78;5054560;28;20031;-68
2023/09/05 02:23:14;;;;;;;5.10;4.00;;;;;;;15.00;100.00;101852.41;5053244;28;20025;-70
2023/09/05 02:25:39;;;;;;;6.53;3.50;;;;;;;15.06;100.00;101861.66;5054606;28;20040;-68
2023/09/05 02:28:05;;;;;;;7.93;4.00;;;;;;;15.05;100.00;101855.44;5054203;28;20032;-69
2023/09/05 02:30:32;;;;;;;5.03;3.07;;;;;;;15.10;100.00;101849.59;5054226;28;20048;-68
2023/09/05 02:32:57;;;;;;;6.67;3.73;;;;;;;15.10;100.00;101837.00;5053892;28;20091;-68
2023/09/05 02:35:24;;;;;;;7.60;3.50;;;;;;;14.94;100.00;101802.09;5054330;28;20025;-67
2023/09/05 02:37:51;;;;;;;5.30;2.87;;;;;;;15.14;100.00;101827.63;5036106;28;20048;-68
2023/09/05 02:40:17;;;;;;;4.57;3.27;;;;;;;14.94;100.00;101791.38;5054062;28;20067;-69
2023/09/05 02:42:42;;;;;;;4.07;3.27;;;;;;;15.17;100.00;101821.06;5053799;28;20025;-69
2023/09/05 02:45:08;;;;;;;7.00;3.60;;;;;;;15.17;100.00;101821.91;5054071;28;20116;-69
2023/09/05 02:47:34;;;;;;;4.47;3.40;;;;;;;15.04;100.00;101799.28;5053954;28;20549;-67
2023/09/05 02:49:59;;;;;;;5.17;3.57;;;;;;;15.18;100.00;101823.59;5053976;28;20021;-67
2023/09/05 02:52:25;;;;;;;6.40;3.60;;;;;;;14.99;100.00;101783.66;5052597;28;20025;-68
2023/09/05 02:54:51;;;;;;;6.67;4.00;;;;;;;15.14;100.00;101816.03;5052541;28;20031;-68
2023/09/05 02:57:16;;;;;;;5.97;3.70;;;;;;;15.08;100.00;101805.97;5053746;28;20033;-69
2023/09/05 02:59:42;;;;;;;4.03;3.10;;;;;;;15.07;100.00;101809.69;5052528;28;20041;-67
2023/09/05 03:02:07;;;;;;;5.33;3.37;;;;;;;15.04;100.00;101794.75;5053445;28;20539;-67
2023/09/05 03:04:33;;;;;;;6.47;3.83;;;;;;;15.14;100.00;101799.94;5052470;28;20518;-66
2023/09/05 03:07:01;;;;;;;8.10;3.90;;;;;;;15.19;100.00;101809.16;5053560;28;20025;-67
2023/09/05 03:09:27;;;;;;;7.03;3.38;;;;;;;15.19;100.00;101798.44;5052195;28;20334;-68
2023/09/05 03:11:52;;;;;;;6.70;3.23;;;;;;;15.09;100.00;101772.78;5052220;28;20036;-68
2023/09/05 03:14:17;;;;;;;3.40;2.80;;;;;;;15.30;100.00;101804.47;5052972;28;20064;-67
2023/09/05 03:16:43;;;;;;;4.57;2.57;;;;;;;15.28;100.00;101791.22;5052861;28;20028;-68
2023/09/05 03:19:11;;;;;;;4.50;3.10;;;;;;;15.37;100.00;101803.66;5053191;28;20486;-68
2023/09/05 03:21:37;;;;;;;4.40;2.83;;;;;;;15.45;100.00;101810.84;5053559;28;20028;-67
2023/09/05 03:24:03;;;;;;;6.73;2.90;;;;;;;15.42;100.00;101795.06;5053244;28;20526;-69
2023/09/05 03:26:28;;;;;;;7.30;3.00;;;;;;;15.45;100.00;101797.41;5052998;28;20598;-68
2023/09/05 03:28:54;;;;;;;4.00;2.67;;;;;;;15.44;100.00;101798.44;5053147;28;20036;-67
2023/09/05 03:31:20;;;;;;;3.37;3.03;;;;;;;15.54;100.00;101801.75;5053310;28;20464;-66
2023/09/05 03:33:45;;;;;;;5.10;2.87;;;;;;;15.37;100.00;101784.00;5053010;28;20119;-68
2023/09/05 03:36:11;;;;;;;4.43;3.53;;;;;;;15.52;100.00;101802.94;5053172;28;20082;-67
2023/09/05 03:38:37;;;;;;;4.50;3.43;;;;;;;15.46;100.00;101783.81;5035066;28;20025;-70
2023/09/05 03:41:02;;;;;;;5.07;3.93;;;;;;;15.46;100.00;101786.50;5052892;28;20051;-70
2023/09/05 03:43:28;;;;;;;4.27;3.63;;;;;;;15.55;100.00;101786.50;5053733;28;20031;-68
2023/09/05 03:45:53;;;;;;;4.43;3.70;;;;;;;15.38;100.00;101748.13;5051788;28;20100;-67
2023/09/05 03:48:20;;;;;;;5.80;4.27;;;;;;;15.46;100.00;101769.56;5052719;28;20461;-68
2023/09/05 03:50:45;;;;;;;8.07;4.27;;;;;;;15.45;100.00;101759.84;5052861;28;20468;-69
2023/09/05 03:53:11;;;;;;;5.77;3.60;;;;;;;15.43;100.00;101754.63;5051460;28;20033;-70
2023/09/05 03:55:36;;;;;;;4.27;3.67;;;;;;;15.49;100.00;101751.28;5052510;28;20452;-68
2023/09/05 03:58:02;;;;;;;5.23;3.33;;;;;;;15.56;100.00;101764.84;5052537;28;20036;-69
2023/09/05 04:00:29;;;;;;;5.90;4.10;;;;;;;15.67;100.00;101783.34;5051253;28;20028;-70
2023/09/05 04:02:55;;;;;;;6.13;3.60;;;;;;;15.57;100.00;101763.84;5052393;28;20074;-66
2023/09/05 04:05:21;;;;;;;4.00;3.60;;;;;;;15.60;100.00;101760.84;5052329;28;20376;-68
2023/09/05 04:07:47;;;;;;;4.07;3.30;;;;;;;15.68;100.00;101773.44;5051098;28;20032;-68
2023/09/05 04:10:12;;;;;;;7.83;4.13;;;;;;;15.68;100.00;101776.94;5052098;28;20076;-68
2023/09/05 04:12:38;;;;;;;5.63;3.80;;;;;;;15.54;100.00;101753.44;5052215;28;20032;-67
2023/09/05 04:15:04;;;;;;;5.40;3.53;;;;;;;15.66;100.00;101778.97;5052317;28;20056;-68
2023/09/05 04:17:30;;;;;;;6.50;3.50;;;;;;;15.65;100.00;101776.47;5052307;28;20039;-68
2023/09/05 04:19:55;;;;;;;7.13;3.40;;;;;;;15.36;100.00;101723.28;5051083;28;20439;-67
2023/09/05 04:22:24;;;;;;;5.93;4.30;;;;;;;15.67;100.00;101780.66;5051230;28;20444;-68
2023/09/05 04:24:55;;;;;;;6.23;4.10;;;;;;;15.52;100.00;101744.72;5051437;28;20491;-67
2023/09/05 04:27:21;;;;;;;7.70;4.70;;;;;;;15.44;100.00;101732.16;5052008;28;20028;-69
2023/09/05 04:29:54;;;;;;;5.33;3.70;;;;;;;15.66;100.00;101752.13;5051647;28;20476;-69
2023/09/05 04:32:27;;;;;;;5.37;4.43;;;;;;;15.85;100.00;101768.84;5052372;28;20045;-70
2023/09/05 04:34:57;;;;;;;7.03;5.33;;;;;;;15.90;100.00;101775.38;5051467;28;20044;-69
2023/09/05 04:37:24;;;;;;;4.93;3.57;;;;;;;15.83;100.00;101768.16;5052164;28;20071;-71
2023/09/05 04:39:50;;;;;;;5.83;4.27;;;;;;;15.87;100.00;101750.69;5052180;28;20024;-70
2023/09/05 04:42:15;;;;;;;7.43;5.00;;;;;;;15.86;100.00;101746.34;5051687;28;20061;-69
2023/09/05 04:44:41;;;;;;;9.07;3.67;;;;;;;15.24;100.00;101634.22;5050378;28;20396;-70
2023/09/05 04:47:26;;;;;;;6.87;4.87;;;;;;;16.01;100.00;101760.72;5051897;28;20108;-69
2023/09/05 04:49:53;;;;;;;5.60;4.97;;;;;;;15.84;100.00;101741.13;5051680;28;20388;-68
2023/09/05 04:52:21;;;;;;;5.20;4.43;;;;;;;15.97;100.00;101754.88;5051627;28;20041;-69
2023/09/05 04:54:46;;;;;;;7.27;4.47;;;;;;;15.95;100.00;101734.56;5051656;28;20025;-69
2023/09/05 04:57:16;;;;;;;7.87;5.47;;;;;;;16.02;100.00;101744.44;5051907;28;20029;-70
2023/09/05 04:59:47;;;;;;;4.73;4.23;;;;;;;16.07;100.00;101738.53;5033838;28;20436;-68
2023/09/05 05:02:13;;;;;;;5.37;4.13;;;;;;;15.96;100.00;101720.97;5051594;28;20415;-68
2023/09/05 05:04:40;;;;;;;6.77;4.57;;;;;;;16.13;100.00;101751.25;5051740;28;20586;-69
2023/09/05 05:07:06;;;;;;;5.40;4.63;;;;;;;16.16;100.00;101748.22;5051404;28;20376;-68
2023/09/05 05:09:32;;;;;;;7.80;4.50;;;;;;;16.20;100.00;101749.56;5051459;28;20484;-66
2023/09/05 05:11:59;;;;;;;5.50;4.10;;;;;;;16.13;100.00;101737.81;5051679;28;20136;-68
2023/09/05 05:14:24;;;;;;;6.63;4.27;;;;;;;16.18;100.00;101743.50;5051585;28;20521;-69
2023/09/05 05:16:50;;;;;;;8.20;4.33;;;;;;;16.23;100.00;101743.00;5051248;28;20164;-71
2023/09/05 05:19:15;;;;;;;7.50;4.23;;;;;;;16.31;100.00;101754.53;5050033;28;20376;-68
2023/09/05 05:21:41;;;;;;;4.50;3.87;;;;;;;16.35;100.00;101745.09;5051371;28;20029;-66
2023/09/05 05:24:07;;;;;;;7.63;4.20;;;;;;;16.42;100.00;101753.28;5051579;28;20025;-67
2023/09/05 05:26:32;;;;;;;7.13;3.57;;;;;;;16.42;100.00;101746.06;5051595;28;20468;-69
2023/09/05 05:28:58;;;;;;;5.97;3.77;;;;;;;16.40;100.00;101740.03;5051726;28;20033;-68
2023/09/05 05:31:25;;;;;;;6.10;4.00;;;;;;;16.45;100.00;101730.59;5051666;28;20049;-67
2023/09/05 05:33:51;;;;;;;5.97;3.57;;;;;;;16.49;100.00;101729.25;5051387;28;20044;-66
2023/09/05 05:36:16;;;;;;;4.97;3.33;;;;;;;16.47;100.00;101736.63;5052778;28;20036;-65
2023/09/05 05:38:42;;;;;;;6.77;3.37;;;;;;;16.41;100.00;101730.94;5055088;28;20387;-66
2023/09/05 05:41:09;;;;;;;5.00;3.57;;;;;;;16.47;100.00;101750.06;5055180;28;20017;-66
2023/09/05 05:43:39;;;;;;;4.07;3.03;;;;;;;16.48;100.00;101736.47;5055649;28;20360;-65
2023/09/05 05:46:04;;;;;;;6.30;3.00;;;;;;;16.52;100.00;101737.78;5053803;28;20032;-67
2023/09/05 05:48:30;;;;;;;5.35;3.60;;;;;;;16.41;100.00;101714.81;5054990;28;20025;-63
2023/09/05 05:50:58;;;;;;;4.53;3.10;;;;;;;16.40;100.00;101707.78;5054839;28;20036;-67
2023/09/05 05:53:24;;;;;;;6.82;3.33;;;;;;;16.47;100.00;101732.09;5053473;28;20021;-65
2023/09/05 05:55:50;;;;;;;5.30;3.03;;;;;;;16.52;100.00;101737.78;5054683;28;20035;-67
2023/09/05 05:58:15;;;;;;;8.02;3.55;;;;;;;16.51;100.00;101732.59;5054759;28;20025;-67
2023/09/05 06:00:50;;;;;;;7.00;3.60;;;;;;;16.56;100.00;101740.97;5054804;28;20431;-67
2023/09/05 06:03:19;;;;;;;4.70;3.57;;;;;;;16.48;100.00;101714.97;5054515;28;20407;-67
2023/09/05 06:05:45;;;;;;;6.70;3.47;;;;;;;16.59;100.00;101735.22;5054583;28;20033;-66
2023/09/05 06:08:11;;;;;;;6.72;3.45;;;;;;;16.65;100.00;101737.19;5054691;28;20025;-64
2023/09/05 06:10:37;;;;;;;5.07;3.17;;;;;;;16.51;100.00;101708.41;5054634;28;20492;-66
2023/09/05 06:13:04;;;;;;;5.15;3.50;;;;;;;16.67;100.00;101724.44;5054505;28;20479;-65
2023/09/05 06:15:30;;;;;;;5.82;3.92;;;;;;;16.60;100.00;101701.94;5054547;28;20055;-67
2023/09/05 06:17:56;;;;;;;5.43;2.97;;;;;;;16.83;100.00;101724.31;5053883;28;20036;-67
2023/09/05 06:20:22;;;;;;;5.95;3.40;;;;;;;16.88;100.00;101726.47;5053246;28;20025;-68
2023/09/05 06:22:47;;;;;;;5.17;3.47;;;;;;;16.97;100.00;101725.38;5054435;28;20021;-66
2023/09/05 06:25:13;;;;;;;5.17;3.47;;;;;;;17.01;100.00;101738.28;5054701;28;20444;-67
2023/09/05 06:27:43;;;;;;;9.43;3.40;;;;;;;17.01;100.00;101732.06;5054651;28;20056;-68
2023/09/05 06:30:10;;;;;;;4.13;3.30;;;;;;;17.01;100.00;101727.53;5054271;28;20111;-64
2023/09/05 06:32:36;;;;;;;6.17;3.77;;;;;;;16.98;100.00;101721.66;5054072;28;20060;-66
2023/09/05 06:35:01;;;;;;;5.63;3.17;;;;;;;17.02;100.00;101723.81;5054335;28;20516;-66
2023/09/05 06:37:30;;;;;;;7.50;3.88;;;;;;;17.08;100.00;101724.97;5053574;28;20079;-69
2023/09/05 06:39:56;;;;;;;5.45;3.60;;;;;;;17.08;100.00;101710.66;5054407;28;20028;-66
2023/09/05 06:42:23;;;;;;;8.02;3.58;;;;;;;17.08;100.00;101710.66;5054569;28;20021;-64
2023/09/05 06:44:49;;;;;;;6.90;3.30;;;;;;;17.14;100.00;101710.78;5053984;28;20460;-64
2023/09/05 06:47:15;;;;;;;4.65;3.40;;;;;;;17.14;100.00;101712.63;5051836;28;20063;-66
2023/09/05 06:49:40;;;;;;;3.90;3.30;;;;;;;17.18;100.00;101701.31;5053101;28;20035;-65
2023/09/05 06:52:05;;;;;;;3.83;3.05;;;;;;;17.01;100.00;101667.47;5055529;28;20527;-66
2023/09/05 06:54:35;;;;;;;6.25;3.00;;;;;;;17.38;100.00;101707.00;5054195;28;20036;-66
2023/09/05 06:57:00;;;;;;;5.30;2.95;;;;;;;17.60;100.00;101699.84;5053809;28;20028;-66
2023/09/05 06:59:26;;;;;;;7.10;3.85;;;;;;;17.83;100.00;101699.78;5053867;28;20422;-66
2023/09/05 07:01:51;;;;;;;5.55;3.30;;;;;;;18.09;100.00;101686.63;5053929;28;20052;-66
2023/09/05 07:04:17;;;;;;;4.80;2.67;;;;;;;18.39;100.00;101689.25;5054161;28;20029;-65
2023/09/05 07:06:42;;;;;;;7.95;2.80;;;;;;;18.38;100.00;101650.66;5053792;28;20029;-66
2023/09/05 07:09:08;;;;;;;6.20;2.53;;;;;;;18.61;100.00;101677.44;5052619;28;20119;-65
2023/09/05 07:11:34;;;;;;;5.47;2.88;;;;;;;18.65;100.00;101683.31;5053358;28;20468;-65
2023/09/05 07:14:00;;;;;;;9.10;3.10;;;;;;;18.49;100.00;101657.38;5053247;28;20041;-66
2023/09/05 07:16:25;;;;;;;4.70;3.03;;;;;;;18.34;100.00;101632.34;5051878;28;20043;-65
2023/09/05 07:18:51;;;;;;;6.65;2.63;;;;;;;18.43;100.00;101653.59;5052053;28;20025;-67
2023/09/05 07:21:17;;;;;;;3.50;2.53;;;;;;;18.36;100.00;101636.53;5053541;28;20032;-67
2023/09/05 07:23:43;;;;;;;3.05;2.20;;;;;;;18.35;100.00;101634.03;5053286;28;20024;-67
2023/09/05 07:26:08;;;;;;;5.90;2.85;;;;;;;18.51;99.32;101647.28;5051551;28;20111;-63
2023/09/05 07:28:34;;;;;;;6.00;3.22;;;;;;;18.43;99.65;101637.44;5052631;28;20110;-66
2023/09/05 07:31:01;;;;;;;4.07;2.72;;;;;;;18.39;100.00;101624.53;5052168;28;20053;-64
2023/09/05 07:33:27;;;;;;;3.20;2.60;;;;;;;18.58;99.44;101646.28;5053256;28;20041;-65
2023/09/05 07:35:52;;;;;;;4.55;2.47;;;;;;;17.93;98.33;101511.69;5052841;28;20334;-65
2023/09/05 07:38:21;;;;;;;5.57;2.50;;;;;;;18.69;98.11;101626.06;5052993;28;20025;-64
2023/09/05 07:40:50;;;;;;;2.60;2.40;;;;;;;18.76;97.29;101605.38;5052870;28;20028;-67
2023/09/05 07:43:16;;;;;;;4.32;2.53;;;;;;;18.62;96.57;101549.66;5052924;28;20387;-65
2023/09/05 07:45:41;;;;;;;3.80;2.70;;;;;;;19.11;95.30;101614.34;5052754;28;20033;-68
2023/09/05 07:48:08;;;;;;;5.75;2.63;;;;;;;19.18;93.31;101625.19;5052188;28;20025;-65
2023/09/05 07:50:35;;;;;;;3.45;2.20;;;;;;;19.15;93.43;101625.59;5050251;28;20033;-68
2023/09/05 07:53:00;;;;;;;8.00;2.55;;;;;;;19.14;93.08;101618.53;5051836;28;20434;-66
2023/09/05 07:55:26;;;;;;;5.55;2.38;;;;;;;19.02;92.78;101593.09;5052502;28;20033;-67
2023/09/05 07:57:52;;;;;;;7.30;2.63;;;;;;;19.38;92.42;101612.66;5051024;28;20488;-69
2023/09/05 08:00:19;;;;;;;8.13;2.92;;;;;;;19.60;91.64;101585.53;5051472;28;20044;-68
2023/09/05 08:02:45;;;;;;;7.93;3.03;;;;;;;19.92;89.84;101590.22;5052532;28;20060;-64
2023/09/05 08:05:11;;;;;;;4.88;2.55;;;;;;;20.05;88.99;101600.25;5052441;28;20048;-66
2023/09/05 08:07:40;;;;;;;4.68;2.65;;;;;;;20.04;88.82;101596.69;5052437;28;20024;-66
2023/09/05 08:10:07;;;;;;;4.32;2.80;;;;;;;19.99;89.41;101590.25;5052290;28;20060;-68
2023/09/05 08:12:32;;;;;;;3.40;2.28;;;;;;;19.83;89.74;101591.44;5051647;28;20094;-68
2023/09/05 08:14:58;;;;;;;5.63;2.33;;;;;;;19.62;90.08;101595.09;5052202;28;20037;-67
2023/09/05 08:17:23;;;;;;;7.00;2.38;;;;;;;19.33;91.02;101596.19;5052053;28;20426;-68
2023/09/05 08:19:49;;;;;;;8.82;2.88;;;;;;;19.10;91.90;101601.88;5049212;28;20562;-66
2023/09/05 08:22:14;;;;;;;2.97;1.65;;;;;;;19.01;93.04;101603.06;5032389;28;20068;-66
2023/09/05 08:24:40;;;;;;;3.92;2.67;;;;;;;19.04;93.15;101593.72;5032643;28;20037;-66
2023/09/05 08:27:05;;;;;;;9.68;2.20;;;;;;;19.25;91.15;101593.66;5031943;28;20338;-65
2023/09/05 08:29:32;;;;;;;4.43;2.80;;;;;;;19.36;89.22;101584.97;5032243;28;20053;-67
2023/09/05 08:31:59;;;;;;;3.00;2.10;;;;;;;19.58;88.67;101599.25;5032311;28;20536;-68
2023/09/05 08:34:24;;;;;;;4.15;2.65;;;;;;;19.56;88.46;101566.19;5032535;28;20064;-67
2023/09/05 08:36:50;;;;;;;5.07;2.15;;;;;;;19.87;87.36;101595.41;5031021;28;20057;-68
2023/09/05 08:39:16;;;;;;;3.45;1.95;;;;;;;19.72;86.83;101565.00;5031887;28;20029;-67
2023/09/05 08:41:42;;;;;;;4.82;2.05;;;;;;;19.91;86.62;101583.13;5031885;28;20029;-66
2023/09/05 08:44:08;;;;;;;6.57;2.60;;;;;;;19.96;86.77;101587.97;5032134;28;20108;-66
2023/09/05 08:46:35;;;;;;;2.63;2.08;;;;;;;19.81;86.08;101582.69;5038684;28;20519;-68
2023/09/05 08:49:01;;;;;;;4.43;2.10;;;;;;;19.45;87.45;101572.16;5043546;28;20472;-66
2023/09/05 08:51:32;;;;;;;3.55;2.28;;;;;;;19.30;88.52;101583.06;5035527;28;20128;-63
2023/09/05 08:54:01;;;;;;;3.78;2.15;;;;;;;19.18;90.40;101590.09;5044379;28;20037;-66
2023/09/05 08:56:26;;;;;;;3.80;2.42;;;;;;;19.14;90.86;101588.81;5038216;28;20033;-66
2023/09/05 08:58:55;;;;;;;3.33;2.42;;;;;;;19.18;91.01;101585.53;5046463;28;20044;-65
2023/09/05 09:01:21;;;;;;;3.45;2.00;;;;;;;19.22;91.23;101590.53;5033425;28;20039;-66
2023/09/05 09:03:47;;;;;;;5.20;2.58;;;;;;;19.17;91.51;101591.97;5039196;28;20036;-69
2023/09/05 09:06:12;;;;;;;6.20;2.20;;;;;;;19.02;92.10;101566.09;5034936;28;20373;-68
2023/09/05 09:08:44;;;;;;;3.97;1.90;;;;;;;19.07;92.47;101588.75;5031682;28;20034;-69
2023/09/05 09:11:10;;;;;;;2.45;2.10;;;;;;;18.96;92.48;101562.31;5033659;28;20416;-67
2023/09/05 09:13:40;;;;;;;3.33;1.90;;;;;;;19.09;93.28;101588.59;5035747;28;20511;-67
2023/09/05 09:16:05;;;;;;;4.80;2.50;;;;;;;19.15;92.95;101569.72;5035261;28;20456;-70
2023/09/05 09:18:34;;;;;;;3.08;2.05;;;;;;;19.15;93.29;101566.19;5035607;28;20088;-66
2023/09/05 09:21:04;;;;;;;5.18;2.28;;;;;;;19.16;93.40;101559.75;5035782;28;20032;-69
2023/09/05 09:23:35;;;;;;;3.13;1.95;;;;;;;19.06;93.97;101567.34;5035400;28;20332;-70
2023/09/05 09:26:05;;;;;;;3.95;2.78;;;;;;;18.86;94.09;101530.31;5034576;28;20079;-70
2023/09/05 09:28:32;;;;;;;3.17;1.98;;;;;;;19.05;93.95;101541.41;5035828;28;20070;-74
2023/09/05 09:31:03;;;;;;;4.55;2.50;;;;;;;19.23;92.43;101541.72;5035554;28;20467;-70
2023/09/05 09:33:31;;;;;;;4.30;2.30;;;;;;;19.22;92.51;101526.53;5036168;28;20045;-68
2023/09/05 09:36:00;;;;;;;7.03;2.33;;;;;;;19.22;93.57;101540.03;5041140;28;20033;-68
2023/09/05 09:38:26;;;;;;;3.83;2.65;;;;;;;19.00;94.26;101503.38;5037102;28;20028;-71
2023/09/05 09:40:52;;;;;;;4.53;3.13;;;;;;;19.12;94.63;101528.78;5035533;28;20025;-71
2023/09/05 09:43:17;;;;;;;2.83;2.55;;;;;;;19.08;93.94;101527.50;5017537;28;20029;-70
2023/09/05 09:45:43;;;;;;;3.42;2.83;;;;;;;18.98;94.25;101510.84;5035304;28;20033;-69
2023/09/05 09:48:14;;;;;;;3.90;2.65;;;;;;;18.95;94.72;101479.69;5037861;28;20040;-70
2023/09/05 09:50:41;;;;;;;7.75;5.20;;;;;;;19.23;94.44;101506.59;5050509;28;20033;-71
2023/09/05 09:53:11;;;;;;;4.72;2.50;;;;;;;19.31;92.90;101492.09;5035493;28;20087;-73
2023/09/05 09:55:42;;;;;;;9.43;2.53;;;;;;;19.43;92.48;101512.09;5053981;28;20484;-67
2023/09/05 09:58:13;;;;;;;2.40;1.90;;;;;;;19.37;92.04;101494.84;5054601;28;20476;-68
2023/09/05 10:00:45;;;;;;;5.53;3.13;;;;;;;19.29;92.36;101488.75;5054988;28;20123;-70
2023/09/05 10:03:12;;;;;;;7.32;2.80;;;;;;;19.42;90.93;101497.75;5052154;28;20407;-70
2023/09/05 10:05:41;;;;;;;3.67;2.30;;;;;;;19.52;91.21;101486.56;5053764;28;20079;-68
2023/09/05 10:08:12;;;;;;;5.78;2.90;;;;;;;19.67;90.94;101489.13;5050891;28;20447;-67
2023/09/05 10:10:41;;;;;;;4.18;2.90;;;;;;;19.67;90.20;101489.97;5053553;28;20031;-71
2023/09/05 10:13:11;;;;;;;8.50;3.10;;;;;;;19.62;90.40;101492.41;5051828;28;20464;-70
2023/09/05 10:15:41;;;;;;;3.10;2.10;;;;;;;19.62;90.67;101502.41;5051867;28;20547;-67
2023/09/05 10:18:09;;;;;;;5.65;3.35;;;;;;;19.47;90.43;101491.75;5053962;28;20025;-67
2023/09/05 10:20:37;;;;;;;5.78;2.50;;;;;;;19.40;91.04;101483.63;5054132;28;20032;-67
2023/09/05 10:23:06;;;;;;;8.65;2.75;;;;;;;19.36;91.43;101487.75;5052536;28;20202;-69
2023/09/05 10:25:37;;;;;;;11.80;3.85;;;;;;;19.53;90.85;101503.59;5050490;28;20542;-68
2023/09/05 10:28:03;;;;;;;4.60;2.20;;;;;;;19.34;90.13;101452.00;5054128;28;20111;-68
2023/09/05 10:30:29;;;;;;;7.38;2.38;;;;;;;19.68;89.76;101497.03;5053957;28;20045;-69
2023/09/05 10:32:57;;;;;;;5.43;2.60;;;;;;;19.79;89.70;101492.88;5045185;28;20043;-69
2023/09/05 10:35:23;;;;;;;3.10;2.20;;;;;;;19.75;89.14;101464.59;5032987;28;20445;-72
2023/09/05 10:37:50;;;;;;;3.67;2.33;;;;;;;20.00;88.83;101489.19;5032894;28;20037;-70
2023/09/05 10:40:17;;;;;;;4.65;2.30;;;;;;;20.16;88.55;101496.03;5032890;28;20499;-72
2023/09/05 10:42:48;;;;;;;5.18;2.65;;;;;;;20.10;86.74;101495.81;5034259;28;20025;-71
2023/09/05 10:45:40;;;;;;;4.30;2.00;;;;;;;20.01;87.33;101490.84;5034698;28;20091;-65
2023/09/05 10:48:10;;;;;;;4.35;2.47;;;;;;;19.82;88.19;101497.88;5055819;28;20033;-68
2023/09/05 10:51:10;;;;;;;5.25;2.58;;;;;;;19.74;88.98;101489.97;5056609;28;20064;-68
2023/09/05 10:53:38;;;;;;;6.60;2.90;;;;;;;19.54;89.58;101467.47;5056045;28;20024;-70
2023/09/05 10:56:04;;;;;;;4.05;2.15;;;;;;;19.47;90.72;101470.97;5056558;28;20357;-64
2023/09/05 10:58:37;;;;;;;9.07;4.75;;;;;;;19.44;91.55;101460.56;5056346;28;20349;-65
2023/09/05 11:01:32;;;;;;;4.93;2.60;;;;;;;19.55;91.63;101475.38;5057773;28;20074;-67
2023/09/05 11:04:07;;;;;;;7.82;3.08;;;;;;;19.59;91.32;101481.19;5053705;28;20062;-67
2023/09/05 11:06:37;;;;;;;12.10;2.90;;;;;;;19.61;91.27;101471.00;5053779;28;20172;-65
2023/09/05 11:09:06;;;;;;;5.20;3.20;;;;;;;19.17;91.37;101407.50;5053519;28;20028;-64
2023/09/05 11:11:34;;;;;;;4.72;2.50;;;;;;;19.53;92.03;101471.19;5053239;28;20119;-64
2023/09/05 11:14:00;;;;;;;3.25;2.63;;;;;;;19.52;91.81;101466.81;5053257;28;20090;-65
2023/09/05 11:16:26;;;;;;;5.95;2.42;;;;;;;19.60;92.29;101458.53;5054504;28;20037;-65
2023/09/05 11:18:56;;;;;;;7.20;2.35;;;;;;;19.74;91.53;101446.72;5054352;28;20029;-69